Terminal Aerodrome Forecast
Issued by NWS Sterling, VA

Current Version | Previous Version | Text Only | Print | Product List | Glossary Off
Versions: 1 2 3 4 5 6 7 8 9 10 11 12 13 14 15 16 17 18

000
FTUS41 KLWX 221138
TAFMRB
TAF
KMRB 221138Z 2212/2312 VRB03KT 6SM -SHRA BKN050 OVC080
     FM221300 VRB03KT 6SM -SHRA SCT008 BKN025 OVC050
     FM221600 16004KT 5SM BR VCTS BKN025CB BKN050
     FM222000 22006KT P6SM BKN050
     FM230600 VRB03KT 5SM BR SCT050 SCT130=

USA.gov is the U.S. government's official web portal to all federal, state and local government web resources and services.